Norwegian Sun — C6RN3 — position and weather

sailwx.info

Track history (hours):
 
Tides and Currents Weather Stations Pressure Air Temp Water Temp Dewpoint Dewpoint Depression Visibility Wind Speed Wind Dir Waves Ship Positions

Norwegian Sun

Operator: Norwegian Cruise Line

Last reported at 2020-Jan-24 03:31 UTC. Time now 2020-Jan-24 04:44 UTC.
Position N 26°51' W 079°52'.

Type: Passenger vessel. MMSI: 311109000.

Date/timePositionNaut miles runAvg speedWind from/ knotsBaromVisibWave heightAir tempDewpointWater temp
2020-Jan-24 03:31N 26°51' W 079°52'9918.0
2020-Jan-23 22:00N 28°23' W 080°33'4 0.8
2020-Jan-23 16:27N 28°25' W 080°38'0 0.0
2020-Jan-23 15:30N 28°25' W 080°38'0 0.0
2020-Jan-23 13:57N 28°25' W 080°38'0 0.0
2020-Jan-23 12:30N 28°25' W 080°38'11 7.2
2020-Jan-23 11:01N 28°19' W 080°27'9018.0
2020-Jan-23 06:00N 26°56' W 079°48'917.9
2020-Jan-23 05:30N 26°47' W 079°46'20517.8
2020-Jan-22 18:00N 23°48' W 081°36'18618.6 350 / 301023.610.8 14.0 8.025.0
2020-Jan-22 08:00N 22°36' W 084°42'18015.6 360 / 371024.610.8 19.011.825.0
2020-Jan-21 20:29N 20°29' W 086°59'7 4.4
2020-Jan-21 19:00N 20°24' W 086°54'7 1.1 020 / 201025.610.8 24.013.826.0
2020-Jan-21 12:59N 20°29' W 086°59'0 0.0
2020-Jan-21 11:29N 20°29' W 086°59'0 0.0
2020-Jan-21 10:29N 20°29' W 086°59'11 3.7
2020-Jan-21 07:30N 20°20' W 087°05'14 0.7
2020-Jan-20 12:01N 20°33' W 087°00'1717.1
2020-Jan-20 11:00N 20°46' W 086°49'27918.6
2020-Jan-19 20:00N 23°42' W 082°54'17617.2 130 / 121024.610.8 26.019.927.0
2020-Jan-19 09:46N 25°06' W 080°04'2318.1
2020-Jan-19 08:30N 25°28' W 079°57'3417.1
2020-Jan-19 06:30N 26°03' W 079°58'3316.6
2020-Jan-19 04:30N 26°36' W 079°55'1716.8
2020-Jan-19 03:30N 26°52' W 079°52'9717.6
2020-Jan-18 22:00N 28°22' W 080°32'5 9.2
2020-Jan-18 21:30N 28°25' W 080°36'1 0.3
2020-Jan-18 17:16N 28°25' W 080°38'0 0.0
2020-Jan-18 16:19N 28°25' W 080°38'0 0.0
2020-Jan-18 15:25N 28°25' W 080°38'8 1.7
2020-Jan-18 10:30N 28°21' W 080°29'5916.9
2020-Jan-18 07:00N 27°30' W 079°54'5316.2 090 / 471030.610.8 20.016.725.0
2020-Jan-18 03:42N 26°37' W 079°45'3621.0
2020-Jan-18 02:01N 26°02' W 079°49'2121.1
2020-Jan-18 01:00N 25°41' W 079°52'2120.8
2020-Jan-18 00:00N 25°21' W 079°56'48415.9
2020-Jan-16 17:28N 20°31' W 086°57'0 0.0
2020-Jan-16 16:58N 20°31' W 086°57'0 0.0
2020-Jan-16 13:58N 20°31' W 086°57'0 0.0
2020-Jan-16 12:58N 20°31' W 086°57'0 0.0
2020-Jan-16 12:28N 20°31' W 086°57'0 0.3
2020-Jan-16 12:00N 20°31' W 086°57'9 9.0
2020-Jan-16 11:00N 20°24' W 087°04'107 7.1
2020-Jan-15 20:00N 18°42' W 087°36'56716.6 110 / 201022.610.8 27.022.628.0
2020-Jan-14 09:52N 25°05' W 080°05'4017.1
2020-Jan-14 07:30N 25°44' W 079°57'2516.8
2020-Jan-14 06:00N 26°09' W 079°57'816.2
2020-Jan-14 05:30N 26°17' W 079°55'  
Track history (hours):
 
Tides and Currents Weather Stations Pressure Air Temp Water Temp Dewpoint Dewpoint Depression Visibility Wind Speed Wind Dir Waves Ship Positions

Norwegian Sun

Operator: Norwegian Cruise Line

Last reported at 2020-Jan-24 03:31 UTC. Time now 2020-Jan-24 04:44 UTC.
Position N 26°51' W 079°52'.

Type: Passenger vessel. MMSI: 311109000.

Date/timePositionNaut miles runAvg speedWind from/ knotsBaromVisibWave heightAir tempDewpointWater temp
2020-Jan-24 03:31N 26°51' W 079°52'9918.0
2020-Jan-23 22:00N 28°23' W 080°33'4 0.8
2020-Jan-23 16:27N 28°25' W 080°38'0 0.0
2020-Jan-23 15:30N 28°25' W 080°38'0 0.0
2020-Jan-23 13:57N 28°25' W 080°38'0 0.0
2020-Jan-23 12:30N 28°25' W 080°38'11 7.2
2020-Jan-23 11:01N 28°19' W 080°27'9018.0
2020-Jan-23 06:00N 26°56' W 079°48'917.9
2020-Jan-23 05:30N 26°47' W 079°46'20517.8
2020-Jan-22 18:00N 23°48' W 081°36'18618.6 350 / 301023.610.8 14.0 8.025.0
2020-Jan-22 08:00N 22°36' W 084°42'18015.6 360 / 371024.610.8 19.011.825.0
2020-Jan-21 20:29N 20°29' W 086°59'7 4.4
2020-Jan-21 19:00N 20°24' W 086°54'7 1.1 020 / 201025.610.8 24.013.826.0
2020-Jan-21 12:59N 20°29' W 086°59'0 0.0
2020-Jan-21 11:29N 20°29' W 086°59'0 0.0
2020-Jan-21 10:29N 20°29' W 086°59'11 3.7
2020-Jan-21 07:30N 20°20' W 087°05'14 0.7
2020-Jan-20 12:01N 20°33' W 087°00'1717.1
2020-Jan-20 11:00N 20°46' W 086°49'27918.6
2020-Jan-19 20:00N 23°42' W 082°54'17617.2 130 / 121024.610.8 26.019.927.0
2020-Jan-19 09:46N 25°06' W 080°04'2318.1
2020-Jan-19 08:30N 25°28' W 079°57'3417.1
2020-Jan-19 06:30N 26°03' W 079°58'3316.6
2020-Jan-19 04:30N 26°36' W 079°55'1716.8
2020-Jan-19 03:30N 26°52' W 079°52'9717.6
2020-Jan-18 22:00N 28°22' W 080°32'5 9.2
2020-Jan-18 21:30N 28°25' W 080°36'1 0.3
2020-Jan-18 17:16N 28°25' W 080°38'0 0.0
2020-Jan-18 16:19N 28°25' W 080°38'0 0.0
2020-Jan-18 15:25N 28°25' W 080°38'8 1.7
2020-Jan-18 10:30N 28°21' W 080°29'5916.9
2020-Jan-18 07:00N 27°30' W 079°54'5316.2 090 / 471030.610.8 20.016.725.0
2020-Jan-18 03:42N 26°37' W 079°45'3621.0
2020-Jan-18 02:01N 26°02' W 079°49'2121.1
2020-Jan-18 01:00N 25°41' W 079°52'2120.8
2020-Jan-18 00:00N 25°21' W 079°56'48415.9
2020-Jan-16 17:28N 20°31' W 086°57'0 0.0
2020-Jan-16 16:58N 20°31' W 086°57'0 0.0
2020-Jan-16 13:58N 20°31' W 086°57'0 0.0
2020-Jan-16 12:58N 20°31' W 086°57'0 0.0
2020-Jan-16 12:28N 20°31' W 086°57'0 0.3
2020-Jan-16 12:00N 20°31' W 086°57'9 9.0
2020-Jan-16 11:00N 20°24' W 087°04'107 7.1
2020-Jan-15 20:00N 18°42' W 087°36'56716.6 110 / 201022.610.8 27.022.628.0
2020-Jan-14 09:52N 25°05' W 080°05'4017.1
2020-Jan-14 07:30N 25°44' W 079°57'2516.8
2020-Jan-14 06:00N 26°09' W 079°57'816.2
2020-Jan-14 05:30N 26°17' W 079°55'  

Dump ship's entire track history